Time;durP1;ratioP1;P1;durP2;ratioP2;P2;SDS_P1;SDS_P2;PMS_P1;PMS_P2;Temp;Humidity;BMP_temperature;BMP_pressure;BME280_temperature;BME280_humidity;BME280_pressure;Samples;Min_cycle;Max_cycle;Signal;HPM_P1;HPM_P2
2022/07/21 00:01:55;;;;;;;;;;;24.30;71.30;;;;;;5023061;28;19920;-66
2022/07/21 00:04:21;;;;;;;;;;;24.30;71.40;;;;;;5041683;28;19988;-67
2022/07/21 00:06:46;;;;;;;;;;;24.30;71.50;;;;;;5021988;28;19924;-66
2022/07/21 00:09:12;;;;;;;;;;;24.30;71.50;;;;;;5004593;28;19917;-67
2022/07/21 00:11:38;;;;;;;;;;;24.20;71.40;;;;;;5023088;28;19920;-66
2022/07/21 00:14:04;;;;;;;;;;;24.20;71.40;;;;;;5022139;28;20557;-66
2022/07/21 00:16:29;;;;;;;;;;;24.20;71.60;;;;;;5022615;28;19966;-66
2022/07/21 00:18:55;;;;;;;;;;;24.10;71.60;;;;;;5022690;28;19913;-66
2022/07/21 00:21:20;;;;;;;;;;;24.20;71.50;;;;;;5040995;28;20007;-66
2022/07/21 00:23:46;;;;;;;;;;;24.10;71.40;;;;;;5026254;28;19970;-66
2022/07/21 00:26:12;;;;;;;;;;;24.10;71.70;;;;;;5022334;28;19996;-66
2022/07/21 00:28:37;;;;;;;;;;;24.10;71.80;;;;;;5022476;28;20028;-66
2022/07/21 00:31:03;;;;;;;;;;;24.00;71.70;;;;;;5032119;28;19917;-66
2022/07/21 00:33:28;;;;;;;;;;;24.00;71.80;;;;;;5040780;28;19920;-66
2022/07/21 00:35:54;;;;;;;;;;;24.00;72.00;;;;;;5029099;28;20020;-66
2022/07/21 00:38:19;;;;;;;;;;;24.00;71.80;;;;;;5023708;28;19913;-66
2022/07/21 00:40:45;;;;;;;;;;;23.90;72.00;;;;;;5030630;28;19917;-66
2022/07/21 00:43:10;;;;;;;;;;;23.90;71.70;;;;;;5022941;28;19944;-67
2022/07/21 00:45:36;;;;;;;;;;;23.90;71.80;;;;;;5022433;28;19948;-67
2022/07/21 00:48:02;;;;;;;;;;;23.90;71.60;;;;;;5021853;28;19917;-66
2022/07/21 00:50:27;;;;;;;;;;;23.90;71.70;;;;;;5022838;28;19917;-67
2022/07/21 00:52:53;;;;;;;;;;;23.80;71.70;;;;;;5022785;28;19920;-67
2022/07/21 00:55:20;;;;;;;;;;;23.80;71.60;;;;;;5022222;28;20008;-67
2022/07/21 00:57:46;;;;;;;;;;;23.80;71.90;;;;;;5003983;28;19913;-66
2022/07/21 01:00:14;;;;;;;;;;;23.80;71.40;;;;;;5022224;28;19921;-66
2022/07/21 01:02:40;;;;;;;;;;;23.80;71.80;;;;;;5022307;28;19913;-67
2022/07/21 01:05:06;;;;;;;;;;;23.70;72.10;;;;;;5021761;28;19981;-66
2022/07/21 01:07:32;;;;;;;;;;;23.70;72.10;;;;;;5021852;28;20023;-66
2022/07/21 01:09:57;;;;;;;;;;;23.70;72.10;;;;;;5021733;28;19996;-67
2022/07/21 01:12:23;;;;;;;;;;;23.70;72.30;;;;;;5004128;28;19913;-66
2022/07/21 01:14:49;;;;;;;;;;;23.60;72.30;;;;;;5022263;28;20004;-67
2022/07/21 01:17:14;;;;;;;;;;;23.60;72.10;;;;;;5021748;28;19920;-66
2022/07/21 01:19:40;;;;;;;;;;;23.60;72.30;;;;;;5023835;28;20650;-66
2022/07/21 01:22:06;;;;;;;;;;;23.60;72.40;;;;;;5025469;28;19917;-66
2022/07/21 01:24:32;;;;;;;;;;;23.60;72.60;;;;;;5025375;28;19970;-66
2022/07/21 01:26:57;;;;;;;;;;;23.60;72.50;;;;;;5024600;28;20510;-66
2022/07/21 01:29:23;;;;;;;;;;;23.50;72.50;;;;;;5025411;28;20613;-67
2022/07/21 01:31:49;;;;;;;;;;;23.50;72.80;;;;;;5032336;28;19962;-66
2022/07/21 01:34:14;;;;;;;;;;;23.50;72.70;;;;;;5024992;28;19921;-66
2022/07/21 01:36:40;;;;;;;;;;;23.50;72.80;;;;;;5024380;28;19913;-66
2022/07/21 01:41:50;;;;;;;;;;;23.50;72.90;;;;;;5023104;28;19969;-66
2022/07/21 01:44:16;;;;;;;;;;;23.40;73.00;;;;;;5007006;28;19913;-66
2022/07/21 01:46:47;;;;;;;;;;;23.40;73.00;;;;;;5024766;28;19928;-66
2022/07/21 01:49:13;;;;;;;;;;;23.40;73.10;;;;;;5025050;28;20615;-66
2022/07/21 01:51:39;;;;;;;;;;;23.30;73.20;;;;;;5024450;28;19913;-66
2022/07/21 01:54:06;;;;;;;;;;;23.30;73.50;;;;;;5055242;28;19909;-66
2022/07/21 01:56:32;;;;;;;;;;;23.30;73.60;;;;;;5038750;28;19958;-66
2022/07/21 01:58:58;;;;;;;;;;;23.30;73.70;;;;;;5025092;28;19914;-66
2022/07/21 02:01:26;;;;;;;;;;;23.20;73.70;;;;;;5006061;28;19917;-66
2022/07/21 02:03:52;;;;;;;;;;;23.30;73.90;;;;;;5024623;28;19917;-66
2022/07/21 02:06:18;;;;;;;;;;;23.20;73.90;;;;;;5026212;28;19913;-66
2022/07/21 02:08:43;;;;;;;;;;;23.20;73.80;;;;;;5022700;28;19920;-66
2022/07/21 02:11:09;;;;;;;;;;;23.20;73.60;;;;;;5023402;28;19963;-66
2022/07/21 02:13:34;;;;;;;;;;;23.20;74.30;;;;;;5023909;28;19920;-66
2022/07/21 02:16:00;;;;;;;;;;;23.20;73.90;;;;;;5024288;28;19965;-66
2022/07/21 02:18:26;;;;;;;;;;;23.10;73.90;;;;;;5023994;28;19984;-66
2022/07/21 02:20:51;;;;;;;;;;;23.10;73.90;;;;;;5024278;28;19960;-66
2022/07/21 02:23:17;;;;;;;;;;;23.10;73.70;;;;;;5031299;28;20590;-66
2022/07/21 02:25:43;;;;;;;;;;;23.10;73.60;;;;;;5042272;28;20004;-66
2022/07/21 02:28:09;;;;;;;;;;;23.00;73.60;;;;;;5026000;28;19967;-66
2022/07/21 02:30:34;;;;;;;;;;;23.00;73.80;;;;;;5028779;28;20011;-66
2022/07/21 02:33:00;;;;;;;;;;;23.00;73.90;;;;;;5027535;28;19913;-66
2022/07/21 02:35:26;;;;;;;;;;;23.00;73.90;;;;;;5029925;28;19919;-66
2022/07/21 02:37:51;;;;;;;;;;;23.00;74.00;;;;;;5040087;28;19913;-66
2022/07/21 02:40:17;;;;;;;;;;;22.90;74.40;;;;;;5037582;28;19921;-66
2022/07/21 02:42:42;;;;;;;;;;;22.90;74.10;;;;;;5024037;28;20008;-66
2022/07/21 02:45:09;;;;;;;;;;;22.90;74.10;;;;;;5023728;28;19975;-66
2022/07/21 02:47:52;;;;;;;;;;;22.90;74.20;;;;;;5023682;28;19917;-66
2022/07/21 02:50:19;;;;;;;;;;;22.90;74.30;;;;;;5024427;28;19917;-66
2022/07/21 02:52:44;;;;;;;;;;;22.80;74.50;;;;;;5023823;28;19914;-66
2022/07/21 02:55:10;;;;;;;;;;;22.80;74.50;;;;;;5042396;28;19958;-66
2022/07/21 02:57:35;;;;;;;;;;;22.80;74.50;;;;;;5030352;28;20554;-66
2022/07/21 03:00:01;;;;;;;;;;;22.80;74.40;;;;;;5024122;28;19953;-66
2022/07/21 03:02:27;;;;;;;;;;;22.80;74.50;;;;;;5024001;28;19913;-66
2022/07/21 03:04:52;;;;;;;;;;;22.70;74.50;;;;;;5023497;28;19996;-66
2022/07/21 03:07:18;;;;;;;;;;;22.80;74.50;;;;;;5023400;28;19917;-66
2022/07/21 03:09:43;;;;;;;;;;;22.70;74.50;;;;;;5023765;28;19913;-66
2022/07/21 03:12:09;;;;;;;;;;;22.70;74.50;;;;;;5040255;28;20444;-66
2022/07/21 03:14:34;;;;;;;;;;;22.70;74.80;;;;;;5041994;28;20001;-66
2022/07/21 03:17:02;;;;;;;;;;;22.60;75.70;;;;;;5041753;28;19966;-66
2022/07/21 03:19:27;;;;;;;;;;;22.60;75.60;;;;;;5042097;28;19920;-66
2022/07/21 03:21:53;;;;;;;;;;;22.60;74.80;;;;;;5026797;28;19917;-66
2022/07/21 03:24:18;;;;;;;;;;;22.60;74.80;;;;;;5005689;28;19917;-66
2022/07/21 03:26:44;;;;;;;;;;;22.60;75.00;;;;;;5022983;28;19917;-67
2022/07/21 03:29:10;;;;;;;;;;;22.60;75.00;;;;;;5023348;28;19917;-66
2022/07/21 03:31:35;;;;;;;;;;;22.60;74.90;;;;;;5023335;28;19921;-66
2022/07/21 03:34:01;;;;;;;;;;;22.60;75.00;;;;;;5030201;28;20036;-66
2022/07/21 03:36:26;;;;;;;;;;;22.50;75.60;;;;;;5026197;28;20385;-66
2022/07/21 03:38:51;;;;;;;;;;;22.50;76.00;;;;;;5031681;28;19913;-66
2022/07/21 03:41:17;;;;;;;;;;;22.50;76.60;;;;;;5031685;28;19920;-66
2022/07/21 03:43:42;;;;;;;;;;;22.50;77.00;;;;;;5018164;28;20642;-66
2022/07/21 03:46:08;;;;;;;;;;;22.40;76.50;;;;;;5022043;28;19940;-66
2022/07/21 03:48:34;;;;;;;;;;;22.50;75.90;;;;;;5022014;28;19913;-66
2022/07/21 03:50:59;;;;;;;;;;;22.50;75.60;;;;;;5022035;28;20443;-66
2022/07/21 03:53:25;;;;;;;;;;;22.40;75.40;;;;;;5044252;28;19924;-66
2022/07/21 03:55:50;;;;;;;;;;;22.40;75.60;;;;;;5040860;28;19919;-66
2022/07/21 03:58:15;;;;;;;;;;;22.40;75.60;;;;;;5023662;28;19965;-66
2022/07/21 04:00:42;;;;;;;;;;;22.40;75.70;;;;;;5022600;28;19917;-66
2022/07/21 04:03:08;;;;;;;;;;;22.40;75.80;;;;;;5022262;28;19917;-66
2022/07/21 04:05:34;;;;;;;;;;;22.40;76.70;;;;;;5022294;28;19913;-66
2022/07/21 04:08:00;;;;;;;;;;;22.30;76.20;;;;;;5019816;28;19917;-66
2022/07/21 04:10:26;;;;;;;;;;;22.30;77.10;;;;;;5023054;28;19913;-66
2022/07/21 04:12:52;;;;;;;;;;;22.30;76.80;;;;;;5025564;28;20337;-66
2022/07/21 04:15:18;;;;;;;;;;;22.30;76.10;;;;;;5041239;28;19913;-66
2022/07/21 04:17:44;;;;;;;;;;;22.30;76.00;;;;;;5040784;28;19913;-66
2022/07/21 04:20:10;;;;;;;;;;;22.30;75.90;;;;;;5041190;28;19913;-66
2022/07/21 04:22:35;;;;;;;;;;;22.30;75.80;;;;;;5037224;28;20046;-66
2022/07/21 04:25:01;;;;;;;;;;;22.30;75.90;;;;;;5022678;28;19924;-66
2022/07/21 04:27:27;;;;;;;;;;;22.30;76.00;;;;;;5022515;28;20527;-66
2022/07/21 04:29:53;;;;;;;;;;;22.30;76.70;;;;;;5022511;28;20004;-66
2022/07/21 04:32:19;;;;;;;;;;;22.20;77.30;;;;;;5004574;28;19913;-66
2022/07/21 04:34:44;;;;;;;;;;;22.20;77.20;;;;;;5004630;28;19913;-66
2022/07/21 04:37:10;;;;;;;;;;;22.20;77.50;;;;;;5022281;28;20713;-66
2022/07/21 04:39:35;;;;;;;;;;;22.20;76.50;;;;;;5034827;28;20300;-66
2022/07/21 04:42:01;;;;;;;;;;;22.20;76.40;;;;;;5034824;28;19924;-66
2022/07/21 04:44:27;;;;;;;;;;;22.20;76.40;;;;;;5023398;28;19913;-66
2022/07/21 04:46:52;;;;;;;;;;;22.20;76.20;;;;;;5022051;28;20471;-66
2022/07/21 04:49:18;;;;;;;;;;;22.20;76.10;;;;;;5022745;28;20350;-66
2022/07/21 04:51:43;;;;;;;;;;;22.20;76.30;;;;;;5022542;28;19917;-66
2022/07/21 04:54:09;;;;;;;;;;;22.20;76.10;;;;;;5021535;28;19913;-66
2022/07/21 04:56:34;;;;;;;;;;;22.20;76.30;;;;;;5004291;28;19913;-66
2022/07/21 04:59:03;;;;;;;;;;;22.20;76.10;;;;;;5021991;28;20009;-66
2022/07/21 05:01:28;;;;;;;;;;;22.20;76.40;;;;;;5022353;28;19961;-66
2022/07/21 05:03:54;;;;;;;;;;;22.20;76.70;;;;;;5022397;28;19948;-66
2022/07/21 05:06:19;;;;;;;;;;;22.10;76.20;;;;;;5021772;28;19920;-66
2022/07/21 05:08:45;;;;;;;;;;;22.20;76.40;;;;;;5004318;28;19926;-66
2022/07/21 05:11:10;;;;;;;;;;;22.20;76.20;;;;;;5021966;28;19965;-66
2022/07/21 05:13:36;;;;;;;;;;;22.20;76.40;;;;;;5022046;28;19913;-66
2022/07/21 05:16:01;;;;;;;;;;;22.20;76.50;;;;;;5021865;28;19909;-66
2022/07/21 05:18:27;;;;;;;;;;;22.20;76.60;;;;;;5004198;28;20313;-66
2022/07/21 05:20:52;;;;;;;;;;;22.20;76.40;;;;;;5021959;28;19917;-66
2022/07/21 05:23:18;;;;;;;;;;;22.10;76.30;;;;;;5022324;28;20349;-66
2022/07/21 05:25:43;;;;;;;;;;;22.10;76.20;;;;;;5017469;28;19921;-66
2022/07/21 05:28:09;;;;;;;;;;;22.20;76.70;;;;;;5023613;28;19917;-66
2022/07/21 05:30:35;;;;;;;;;;;22.10;76.50;;;;;;5021562;28;19921;-66
2022/07/21 05:33:00;;;;;;;;;;;22.10;76.60;;;;;;5021682;28;19924;-66
2022/07/21 05:35:26;;;;;;;;;;;22.10;76.50;;;;;;5031553;28;19913;-66
2022/07/21 05:37:52;;;;;;;;;;;22.20;76.70;;;;;;5021253;28;19913;-66
2022/07/21 05:40:17;;;;;;;;;;;22.20;76.50;;;;;;5037053;28;20012;-66
2022/07/21 05:42:43;;;;;;;;;;;22.10;76.40;;;;;;5040047;28;19916;-66
2022/07/21 05:45:08;;;;;;;;;;;22.20;76.30;;;;;;5039808;28;20027;-66
2022/07/21 05:47:34;;;;;;;;;;;22.10;76.60;;;;;;5039607;28;20607;-66
2022/07/21 05:49:59;;;;;;;;;;;22.20;76.50;;;;;;5035377;28;19917;-66
2022/07/21 05:52:25;;;;;;;;;;;22.20;77.00;;;;;;5021724;28;20632;-66
2022/07/21 05:54:51;;;;;;;;;;;22.10;76.70;;;;;;5021490;28;19962;-66
2022/07/21 05:57:17;;;;;;;;;;;22.20;76.70;;;;;;5030317;28;19913;-66
2022/07/21 05:59:43;;;;;;;;;;;22.20;76.70;;;;;;5037939;28;20516;-66
2022/07/21 06:02:09;;;;;;;;;;;22.20;76.40;;;;;;5020905;28;19917;-66
2022/07/21 06:04:34;;;;;;;;;;;22.20;76.80;;;;;;5003640;28;19917;-66
2022/07/21 06:07:00;;;;;;;;;;;22.20;76.90;;;;;;5023311;28;19964;-66
2022/07/21 06:09:25;;;;;;;;;;;22.20;76.50;;;;;;5024563;28;20318;-66
2022/07/21 06:11:51;;;;;;;;;;;22.20;76.70;;;;;;5024352;28;20364;-66
2022/07/21 06:14:16;;;;;;;;;;;22.20;76.80;;;;;;5024573;28;19916;-66
2022/07/21 06:16:42;;;;;;;;;;;22.20;76.70;;;;;;5024252;28;19917;-66
2022/07/21 06:19:07;;;;;;;;;;;22.20;76.50;;;;;;5024808;28;19968;-66
2022/07/21 06:21:33;;;;;;;;;;;22.20;76.60;;;;;;5024520;28;20304;-66
2022/07/21 06:23:59;;;;;;;;;;;22.20;76.60;;;;;;5024974;28;19913;-66
2022/07/21 06:26:25;;;;;;;;;;;22.30;76.40;;;;;;5023833;28;20379;-66
2022/07/21 06:28:51;;;;;;;;;;;22.30;76.70;;;;;;5032266;28;19913;-66
2022/07/21 06:31:16;;;;;;;;;;;22.30;76.30;;;;;;5043069;28;19913;-66
2022/07/21 06:33:42;;;;;;;;;;;22.30;76.30;;;;;;5037521;28;19909;-66
2022/07/21 06:36:08;;;;;;;;;;;22.30;76.70;;;;;;5029105;28;19947;-66
2022/07/21 06:38:33;;;;;;;;;;;22.30;77.00;;;;;;5030347;28;20364;-66
2022/07/21 06:40:59;;;;;;;;;;;22.40;76.80;;;;;;5042660;28;19966;-66
2022/07/21 06:43:24;;;;;;;;;;;22.30;76.60;;;;;;5042915;28;20000;-66
2022/07/21 06:45:50;;;;;;;;;;;22.40;76.70;;;;;;5027936;28;19929;-66
2022/07/21 06:48:16;;;;;;;;;;;22.40;76.70;;;;;;5024135;28;20517;-66
2022/07/21 06:50:42;;;;;;;;;;;22.40;76.60;;;;;;5024052;28;19959;-66
2022/07/21 06:53:07;;;;;;;;;;;22.40;76.60;;;;;;5024293;28;20328;-66
2022/07/21 06:55:33;;;;;;;;;;;22.40;77.10;;;;;;5024207;28;19924;-66
2022/07/21 06:58:08;;;;;;;;;;;22.50;76.80;;;;;;5023530;28;19917;-66
2022/07/21 07:00:34;;;;;;;;;;;22.50;76.60;;;;;;5006367;28;19948;-66
2022/07/21 07:03:00;;;;;;;;;;;22.50;76.70;;;;;;5024322;28;19935;-66
2022/07/21 07:05:27;;;;;;;;;;;22.50;76.70;;;;;;5023791;28;19913;-66
2022/07/21 07:07:53;;;;;;;;;;;22.50;76.90;;;;;;5023634;28;20830;-66
2022/07/21 07:10:18;;;;;;;;;;;22.50;76.80;;;;;;5024272;28;19913;-66
2022/07/21 07:12:44;;;;;;;;;;;22.50;76.50;;;;;;5024154;28;19965;-67
2022/07/21 07:15:09;;;;;;;;;;;22.60;77.00;;;;;;5023756;28;19913;-66
2022/07/21 07:17:35;;;;;;;;;;;22.60;76.90;;;;;;5023376;28;20372;-67
2022/07/21 07:20:01;;;;;;;;;;;22.60;76.70;;;;;;5040054;28;20292;-67
2022/07/21 07:22:26;;;;;;;;;;;22.70;76.40;;;;;;5023781;28;20550;-67
2022/07/21 07:24:52;;;;;;;;;;;22.70;76.70;;;;;;5041910;28;19962;-67
2022/07/21 07:27:17;;;;;;;;;;;22.70;76.70;;;;;;5032235;28;19917;-67
2022/07/21 07:29:43;;;;;;;;;;;22.70;76.10;;;;;;5005453;28;19917;-67
2022/07/21 07:32:08;;;;;;;;;;;22.70;76.30;;;;;;5023373;28;19917;-67
2022/07/21 07:34:34;;;;;;;;;;;22.80;76.20;;;;;;5023278;28;19913;-67
2022/07/21 07:37:00;;;;;;;;;;;22.80;76.70;;;;;;5022973;28;20769;-67
2022/07/21 07:39:25;;;;;;;;;;;22.80;76.60;;;;;;5023050;28;19921;-67
2022/07/21 07:41:51;;;;;;;;;;;22.80;76.60;;;;;;5023357;28;19926;-67
2022/07/21 07:44:16;;;;;;;;;;;22.70;76.60;;;;;;5023655;28;19913;-67
2022/07/21 07:46:42;;;;;;;;;;;22.70;76.50;;;;;;5023012;28;19921;-67
2022/07/21 07:49:08;;;;;;;;;;;22.80;76.60;;;;;;5031108;28;19988;-67
2022/07/21 07:51:33;;;;;;;;;;;22.70;76.40;;;;;;5042008;28;20536;-67
2022/07/21 07:54:02;;;;;;;;;;;22.70;76.50;;;;;;5041550;28;19999;-67
2022/07/21 07:56:27;;;;;;;;;;;22.70;76.20;;;;;;5037453;28;19939;-67
2022/07/21 07:58:53;;;;;;;;;;;22.80;76.60;;;;;;5004878;28;19966;-67
2022/07/21 08:01:19;;;;;;;;;;;22.80;76.40;;;;;;5022746;28;19917;-67
2022/07/21 08:03:45;;;;;;;;;;;22.90;76.00;;;;;;5023202;28;19913;-67
2022/07/21 08:06:10;;;;;;;;;;;23.00;76.20;;;;;;5023122;28;19917;-67
2022/07/21 08:08:36;;;;;;;;;;;23.00;75.80;;;;;;5022998;28;19924;-67
2022/07/21 08:11:02;;;;;;;;;;;23.00;75.80;;;;;;5022829;28;19909;-67
2022/07/21 08:13:27;;;;;;;;;;;23.00;75.70;;;;;;5005004;28;20551;-67
2022/07/21 08:15:53;;;;;;;;;;;23.10;75.80;;;;;;5040974;28;20007;-67
2022/07/21 08:18:18;;;;;;;;;;;23.10;75.80;;;;;;5037346;28;19944;-67
2022/07/21 08:20:45;;;;;;;;;;;23.10;75.60;;;;;;5023163;28;19909;-67
2022/07/21 08:23:11;;;;;;;;;;;23.10;75.80;;;;;;5005202;28;20289;-67
2022/07/21 08:25:36;;;;;;;;;;;23.30;75.30;;;;;;5023180;28;19917;-66
2022/07/21 08:28:02;;;;;;;;;;;23.30;75.20;;;;;;5022043;28;19917;-67
2022/07/21 08:30:27;;;;;;;;;;;23.40;75.10;;;;;;5022525;28;20309;-67
2022/07/21 08:32:53;;;;;;;;;;;23.50;75.40;;;;;;5021033;28;20281;-67
2022/07/21 08:35:18;;;;;;;;;;;23.50;74.80;;;;;;5022440;28;19913;-67
2022/07/21 08:37:52;;;;;;;;;;;23.50;74.90;;;;;;5038260;28;20292;-67
2022/07/21 08:40:18;;;;;;;;;;;23.50;74.90;;;;;;5030940;28;20266;-67
2022/07/21 08:42:45;;;;;;;;;;;23.50;74.70;;;;;;5040984;28;19920;-67
2022/07/21 08:45:10;;;;;;;;;;;23.50;74.80;;;;;;5041033;28;19923;-67
2022/07/21 08:47:36;;;;;;;;;;;23.60;75.00;;;;;;5040656;28;19934;-67
2022/07/21 08:50:04;;;;;;;;;;;23.60;74.80;;;;;;5023581;28;20081;-67
2022/07/21 08:52:30;;;;;;;;;;;23.60;74.60;;;;;;5022682;28;19913;-67
2022/07/21 08:54:56;;;;;;;;;;;23.70;74.70;;;;;;5022553;28;20459;-67
2022/07/21 08:57:21;;;;;;;;;;;23.70;74.50;;;;;;5022227;28;19918;-67
2022/07/21 08:59:47;;;;;;;;;;;23.70;74.30;;;;;;5022459;28;20365;-67
2022/07/21 09:02:29;;;;;;;;;;;23.80;74.20;;;;;;5022796;28;20008;-67
2022/07/21 09:04:55;;;;;;;;;;;23.80;74.10;;;;;;5036374;28;19913;-67
2022/07/21 09:07:22;;;;;;;;;;;23.80;73.90;;;;;;5022213;28;19917;-67
2022/07/21 09:09:55;;;;;;;;;;;23.80;74.00;;;;;;5022171;28;20377;-67
2022/07/21 09:12:20;;;;;;;;;;;23.90;74.10;;;;;;5022347;28;20393;-67
2022/07/21 09:14:46;;;;;;;;;;;23.90;74.00;;;;;;5040557;28;19920;-67
2022/07/21 09:17:11;;;;;;;;;;;23.90;73.70;;;;;;5040714;28;20011;-67
2022/07/21 09:19:44;;;;;;;;;;;24.00;73.70;;;;;;5010254;28;19918;-67
2022/07/21 09:22:16;;;;;;;;;;;24.00;73.50;;;;;;5041440;28;20277;-67
2022/07/21 09:24:47;;;;;;;;;;;24.10;73.10;;;;;;5040805;28;19936;-67
2022/07/21 09:27:13;;;;;;;;;;;24.10;73.20;;;;;;5013240;28;19917;-67
2022/07/21 09:29:52;;;;;;;;;;;24.10;73.10;;;;;;5021935;28;20024;-67
2022/07/21 09:32:25;;;;;;;;;;;24.20;73.10;;;;;;5022303;28;20533;-67
2022/07/21 09:34:52;;;;;;;;;;;24.20;72.90;;;;;;5004213;28;20338;-67
2022/07/21 09:37:18;;;;;;;;;;;24.20;73.20;;;;;;5021617;28;19913;-67
2022/07/21 09:39:47;;;;;;;;;;;24.20;72.90;;;;;;5023491;28;19948;-67
2022/07/21 09:42:14;;;;;;;;;;;24.30;72.80;;;;;;5023912;28;19936;-67
2022/07/21 09:44:41;;;;;;;;;;;24.30;72.70;;;;;;5005753;28;21377;-67
2022/07/21 09:47:13;;;;;;;;;;;24.30;72.80;;;;;;5023476;28;20454;-67
2022/07/21 09:49:40;;;;;;;;;;;24.30;72.70;;;;;;5023771;28;19971;-67
2022/07/21 09:52:25;;;;;;;;;;;24.30;72.50;;;;;;5024150;28;19917;-67
2022/07/21 09:54:52;;;;;;;;;;;24.30;72.50;;;;;;5023894;28;19982;-67
2022/07/21 09:57:18;;;;;;;;;;;24.40;72.70;;;;;;5023070;28;19931;-67
2022/07/21 09:59:44;;;;;;;;;;;24.40;72.50;;;;;;5023439;28;19966;-67
2022/07/21 10:02:30;;;;;;;;;;;24.40;72.50;;;;;;5023674;28;19921;-67
2022/07/21 10:05:06;;;;;;;;;;;24.30;72.50;;;;;;5023231;28;19936;-67
2022/07/21 10:07:32;;;;;;;;;;;24.40;72.50;;;;;;5019883;28;19925;-67
2022/07/21 10:09:58;;;;;;;;;;;24.40;72.50;;;;;;5023668;28;20409;-67
2022/07/21 10:12:24;;;;;;;;;;;24.40;72.50;;;;;;5024783;28;19993;-67
2022/07/21 10:14:50;;;;;;;;;;;24.30;72.10;;;;;;5025028;28;19920;-67
2022/07/21 10:17:16;;;;;;;;;;;24.30;72.20;;;;;;5025750;28;19917;-67
2022/07/21 10:20:07;;;;;;;;;;;24.30;72.30;;;;;;5024851;28;19948;-67
2022/07/21 10:22:51;;;;;;;;;;;24.30;72.10;;;;;;5016880;28;20429;-67
2022/07/21 10:25:17;;;;;;;;;;;24.30;72.30;;;;;;5023768;28;19921;-67
2022/07/21 10:28:01;;;;;;;;;;;24.30;72.10;;;;;;5027437;28;20511;-67
2022/07/21 10:30:37;;;;;;;;;;;24.40;72.20;;;;;;5041891;28;19952;-67
2022/07/21 10:33:02;;;;;;;;;;;24.40;72.00;;;;;;5023914;28;20008;-67
2022/07/21 10:35:30;;;;;;;;;;;24.30;71.90;;;;;;5033349;28;19996;-67
2022/07/21 10:37:55;;;;;;;;;;;24.40;71.80;;;;;;5025185;28;20373;-67
2022/07/21 10:40:21;;;;;;;;;;;24.40;71.80;;;;;;5041576;28;19924;-67
2022/07/21 10:42:59;;;;;;;;;;;24.40;71.50;;;;;;5028879;28;19913;-67
2022/07/21 10:45:31;;;;;;;;;;;24.40;71.60;;;;;;5023820;28;19921;-67
2022/07/21 10:47:56;;;;;;;;;;;24.30;71.60;;;;;;5023805;28;19962;-67
2022/07/21 10:50:32;;;;;;;;;;;24.30;71.70;;;;;;5024700;28;19952;-67
2022/07/21 10:52:59;;;;;;;;;;;24.30;71.70;;;;;;5023751;28;20329;-67
2022/07/21 10:55:26;;;;;;;;;;;24.30;71.50;;;;;;5006467;28;19913;-67
2022/07/21 10:58:12;;;;;;;;;;;24.30;71.40;;;;;;5023658;28;19928;-67
2022/07/21 11:00:38;;;;;;;;;;;24.30;71.40;;;;;;5023292;28;19913;-67
2022/07/21 11:03:12;;;;;;;;;;;24.30;71.30;;;;;;5024263;28;19921;-67
2022/07/21 11:05:57;;;;;;;;;;;24.30;71.30;;;;;;5029177;28;19923;-68
2022/07/21 11:08:29;;;;;;;;;;;24.20;71.40;;;;;;5023622;28;19924;-67
2022/07/21 11:11:06;;;;;;;;;;;24.20;71.60;;;;;;5023885;28;19913;-67
2022/07/21 11:13:51;;;;;;;;;;;24.10;71.50;;;;;;5023909;28;19993;-67
2022/07/21 11:16:17;;;;;;;;;;;24.10;71.60;;;;;;5023424;28;20434;-67
2022/07/21 11:18:45;;;;;;;;;;;24.10;71.60;;;;;;5023637;28;19917;-67
2022/07/21 11:21:15;;;;;;;;;;;24.10;71.70;;;;;;5023446;28;19949;-67
2022/07/21 11:23:42;;;;;;;;;;;24.00;71.60;;;;;;5023316;28;19913;-67
2022/07/21 11:26:09;;;;;;;;;;;24.00;71.60;;;;;;5022835;28;20003;-67
2022/07/21 11:28:34;;;;;;;;;;;24.00;72.10;;;;;;5022681;28;19917;-67
2022/07/21 11:31:11;;;;;;;;;;;23.90;72.10;;;;;;5023137;28;20368;-67
2022/07/21 11:33:41;;;;;;;;;;;23.90;71.80;;;;;;5025505;28;20004;-67
2022/07/21 11:36:07;;;;;;;;;;;23.80;72.00;;;;;;5023017;28;20481;-67
2022/07/21 11:38:33;;;;;;;;;;;23.80;72.10;;;;;;5039247;28;19913;-67
2022/07/21 11:41:14;;;;;;;;;;;23.80;72.10;;;;;;5041333;28;20384;-67
2022/07/21 11:43:43;;;;;;;;;;;23.80;72.20;;;;;;5041284;28;19913;-67
2022/07/21 11:46:09;;;;;;;;;;;23.80;72.60;;;;;;5041119;28;19928;-67
2022/07/21 11:48:35;;;;;;;;;;;23.80;72.50;;;;;;5016999;28;20562;-67
2022/07/21 11:51:01;;;;;;;;;;;23.70;72.00;;;;;;5023726;28;19914;-67
2022/07/21 11:53:26;;;;;;;;;;;23.70;72.40;;;;;;5024103;28;19914;-67
2022/07/21 11:55:53;;;;;;;;;;;23.70;72.50;;;;;;5023693;28;20280;-67
2022/07/21 11:58:19;;;;;;;;;;;23.70;72.60;;;;;;5023556;28;19913;-67
2022/07/21 12:00:46;;;;;;;;;;;23.60;72.90;;;;;;5023677;28;19920;-67
2022/07/21 12:03:13;;;;;;;;;;;23.60;73.20;;;;;;5021288;28;19963;-67
2022/07/21 12:05:41;;;;;;;;;;;23.60;73.10;;;;;;5031808;28;19959;-67
2022/07/21 12:08:07;;;;;;;;;;;23.50;72.90;;;;;;5023291;28;20377;-67
2022/07/21 12:10:33;;;;;;;;;;;23.50;73.10;;;;;;5023424;28;20039;-67
2022/07/21 12:12:58;;;;;;;;;;;23.50;73.10;;;;;;5023713;28;20440;-67
2022/07/21 12:15:29;;;;;;;;;;;23.50;73.30;;;;;;5023604;28;19913;-67
2022/07/21 12:17:58;;;;;;;;;;;23.50;73.40;;;;;;5023124;28;19913;-67
2022/07/21 12:20:25;;;;;;;;;;;23.40;73.50;;;;;;5023047;28;20748;-67
2022/07/21 12:22:51;;;;;;;;;;;23.40;73.50;;;;;;5023172;28;19917;-67
2022/07/21 12:25:17;;;;;;;;;;;23.40;73.30;;;;;;5021616;28;19924;-67
2022/07/21 12:27:47;;;;;;;;;;;23.40;73.60;;;;;;5021929;28;19913;-67
2022/07/21 12:30:29;;;;;;;;;;;23.40;73.60;;;;;;5022977;28;19944;-67
2022/07/21 12:33:00;;;;;;;;;;;23.40;74.00;;;;;;5022974;28;19909;-67
2022/07/21 12:35:26;;;;;;;;;;;23.40;74.40;;;;;;5023163;28;19913;-67
2022/07/21 12:37:53;;;;;;;;;;;23.40;73.90;;;;;;5023298;28;19920;-67
2022/07/21 12:40:19;;;;;;;;;;;23.40;74.10;;;;;;5018945;28;19909;-67
2022/07/21 12:42:45;;;;;;;;;;;23.50;74.10;;;;;;5034735;28;20011;-67
2022/07/21 12:45:19;;;;;;;;;;;23.50;74.10;;;;;;5040457;28;20003;-67
2022/07/21 12:48:04;;;;;;;;;;;23.50;74.20;;;;;;5031661;28;19921;-67
2022/07/21 12:50:30;;;;;;;;;;;23.50;74.50;;;;;;5021101;28;19913;-67
2022/07/21 12:52:55;;;;;;;;;;;23.50;74.70;;;;;;5021484;28;19920;-67
2022/07/21 12:55:20;;;;;;;;;;;23.50;74.80;;;;;;5020998;28;19924;-67
2022/07/21 12:57:46;;;;;;;;;;;23.40;74.80;;;;;;5021392;28;20392;-67
2022/07/21 13:00:12;;;;;;;;;;;23.40;75.00;;;;;;5035143;28;19973;-67
2022/07/21 13:02:56;;;;;;;;;;;23.40;75.20;;;;;;5040132;28;19913;-67
2022/07/21 13:05:22;;;;;;;;;;;23.40;75.50;;;;;;5032200;28;19917;-67
2022/07/21 13:07:48;;;;;;;;;;;23.40;74.80;;;;;;5020977;28;20301;-67
2022/07/21 13:10:14;;;;;;;;;;;23.40;74.90;;;;;;5021651;28;19913;-67
2022/07/21 13:12:39;;;;;;;;;;;23.40;75.00;;;;;;5003615;28;20352;-67
2022/07/21 13:15:05;;;;;;;;;;;23.40;75.50;;;;;;5021872;28;19913;-67
2022/07/21 13:17:31;;;;;;;;;;;23.40;75.80;;;;;;5022536;28;19923;-67
2022/07/21 13:19:56;;;;;;;;;;;23.40;75.10;;;;;;5035959;28;19917;-67
2022/07/21 13:22:22;;;;;;;;;;;23.40;75.60;;;;;;5026852;28;20000;-67
2022/07/21 13:24:47;;;;;;;;;;;23.40;75.50;;;;;;5024299;28;20450;-67
2022/07/21 13:27:13;;;;;;;;;;;23.40;75.50;;;;;;5023707;28;19917;-67
2022/07/21 13:29:39;;;;;;;;;;;23.40;75.30;;;;;;5026474;28;19920;-67
2022/07/21 13:32:06;;;;;;;;;;;23.40;75.40;;;;;;5023535;28;19916;-67
2022/07/21 13:34:31;;;;;;;;;;;23.40;75.70;;;;;;5025383;28;19924;-67
2022/07/21 13:36:57;;;;;;;;;;;23.30;75.80;;;;;;5023193;28;20376;-67
2022/07/21 13:39:26;;;;;;;;;;;23.30;75.80;;;;;;5036501;28;19928;-67
2022/07/21 13:41:52;;;;;;;;;;;23.30;75.80;;;;;;5024576;28;20045;-67
2022/07/21 13:44:18;;;;;;;;;;;23.30;76.00;;;;;;5042471;28;20333;-67
2022/07/21 13:46:43;;;;;;;;;;;23.30;76.10;;;;;;5042087;28;19923;-67
2022/07/21 13:49:09;;;;;;;;;;;23.30;76.10;;;;;;5038507;28;19917;-67
2022/07/21 13:51:34;;;;;;;;;;;23.20;76.40;;;;;;5006417;28;19913;-67
2022/07/21 13:54:00;;;;;;;;;;;23.20;76.30;;;;;;5022495;28;19935;-67
2022/07/21 13:56:26;;;;;;;;;;;23.20;76.50;;;;;;5022983;28;19941;-67
2022/07/21 13:58:51;;;;;;;;;;;23.20;76.20;;;;;;5023258;28;19924;-67
2022/07/21 14:01:17;;;;;;;;;;;23.20;76.00;;;;;;5023401;28;20258;-67
2022/07/21 14:03:44;;;;;;;;;;;23.20;76.20;;;;;;5024060;28;19922;-67
2022/07/21 14:06:10;;;;;;;;;;;23.20;76.70;;;;;;5023126;28;19913;-67
2022/07/21 14:08:36;;;;;;;;;;;23.10;76.50;;;;;;5024097;28;20063;-67
2022/07/21 14:11:02;;;;;;;;;;;23.10;76.80;;;;;;5006048;28;19917;-67
2022/07/21 14:13:27;;;;;;;;;;;23.10;76.70;;;;;;5021407;28;19924;-67
2022/07/21 14:15:53;;;;;;;;;;;23.00;76.30;;;;;;5042200;28;19909;-67
2022/07/21 14:18:19;;;;;;;;;;;23.00;76.30;;;;;;5022224;28;20417;-67